Itapolis, Brazil
Current Conditions -  °F | °C
As of 5:20 PM on Monday 22 Dec 2014 (Local Time) from SBAQ Reporting Station
Light Rain Light Rain  
Wind Chill: 77°   Ceiling: 1500
Heat Index: 78°   Visibility: 2.5mi
Dew Point: 72°   Wind: 6mph
Humidity: 83%   Direction: 270°W
Pressure: 29.94"   Gusts: NA
Location:  21.58°S, 48.77°W
Report Text: SBAQ 221920Z 27005KT 4000 -RA BR BKN015 25/22 Q1014
Loading
Personal Weather Stations






























Interactive Weather Map New forecast layout! Learn more

10-Day Weather Forecast

Advertisements
Track Severe Weather on mobile